Time;durP1;ratioP1;P1;durP2;ratioP2;P2;SDS_P1;SDS_P2;PMS_P1;PMS_P2;Temp;Humidity;BMP_temperature;BMP_pressure;BME280_temperature;BME280_humidity;BME280_pressure;Samples;Min_cycle;Max_cycle;Signal;HPM_P1;HPM_P2
2022/04/02 00:01:55;;;;;;;;;;;;;;;3.69;70.95;97729.09;5226658;27;33715;-87
2022/04/02 00:04:23;;;;;;;;;;;;;;;3.94;69.82;97724.41;5227321;27;34335;-87
2022/04/02 00:06:53;;;;;;;;;;;;;;;3.58;70.61;97720.78;5233233;27;34214;-87
2022/04/02 00:09:22;;;;;;;;;;;;;;;3.32;72.21;97724.59;5230444;27;33665;-89
2022/04/02 00:11:52;;;;;;;;;;;;;;;3.55;70.89;97721.66;5226984;27;34015;-87
2022/04/02 00:14:21;;;;;;;;;;;;;;;3.55;71.17;97725.94;5226634;27;34332;-87
2022/04/02 00:16:49;;;;;;;;;;;;;;;3.69;70.49;97733.41;5226956;27;34855;-88
2022/04/02 00:19:20;;;;;;;;;;;;;;;3.55;70.91;97726.78;5232674;27;33092;-88
2022/04/02 00:21:49;;;;;;;;;;;;;;;3.52;70.88;97736.25;5228424;27;33736;-87
2022/04/02 00:24:18;;;;;;;;;;;;;;;3.32;71.23;97726.31;5228688;27;34963;-89
2022/04/02 00:26:46;;;;;;;;;;;;;;;3.59;70.20;97707.06;5230405;27;33801;-87
2022/04/02 00:29:16;;;;;;;;;;;;;;;3.42;71.28;97692.81;5228911;27;33415;-87
2022/04/02 00:31:44;;;;;;;;;;;;;;;3.22;71.37;97694.88;5235265;27;33746;-86
2022/04/02 00:34:13;;;;;;;;;;;;;;;2.90;72.64;97696.19;5228836;27;33952;-87
2022/04/02 00:36:41;;;;;;;;;;;;;;;3.15;71.94;97691.53;5228659;27;33860;-87
2022/04/02 00:39:10;;;;;;;;;;;;;;;3.10;72.11;97690.78;5229249;27;34109;-86
2022/04/02 00:41:38;;;;;;;;;;;;;;;3.03;72.55;97680.66;5228562;27;33371;-87
2022/04/02 00:44:10;;;;;;;;;;;;;;;3.20;71.65;97673.53;5230272;27;34269;-87
2022/04/02 00:46:41;;;;;;;;;;;;;;;2.96;72.42;97672.22;5233412;27;34763;-88
2022/04/02 00:49:10;;;;;;;;;;;;;;;2.75;73.49;97666.53;5228611;27;33633;-89
2022/04/02 00:51:41;;;;;;;;;;;;;;;2.85;72.72;97664.69;5229154;27;34937;-87
2022/04/02 00:54:10;;;;;;;;;;;;;;;2.82;73.00;97669.84;5228944;27;34197;-87
2022/04/02 00:56:39;;;;;;;;;;;;;;;3.01;72.47;97674.69;5228725;27;34169;-87
2022/04/02 00:59:08;;;;;;;;;;;;;;;3.23;71.62;97677.75;5234457;27;33552;-88
2022/04/02 01:01:37;;;;;;;;;;;;;;;3.24;71.47;97670.06;5228656;27;34300;-87
2022/04/02 01:04:09;;;;;;;;;;;;;;;3.16;71.41;97675.28;5228715;27;35092;-87
2022/04/02 01:06:38;;;;;;;;;;;;;;;3.10;71.46;97672.00;5228678;27;33891;-89
2022/04/02 01:09:10;;;;;;;;;;;;;;;3.27;70.92;97685.38;5228480;27;33492;-87
2022/04/02 01:11:40;;;;;;;;;;;;;;;3.30;70.37;97689.63;5234005;27;34773;-87
2022/04/02 01:14:08;;;;;;;;;;;;;;;3.01;71.30;97702.88;5232272;27;33666;-87
2022/04/02 01:16:37;;;;;;;;;;;;;;;3.03;71.27;97701.97;5228372;27;34357;-87
2022/04/02 01:19:07;;;;;;;;;;;;;;;3.26;70.21;97711.84;5228585;27;33282;-87
2022/04/02 01:21:37;;;;;;;;;;;;;;;3.09;70.43;97711.28;5228652;27;33736;-87
2022/04/02 01:24:08;;;;;;;;;;;;;;;3.27;70.09;97720.41;5228336;27;34124;-87
2022/04/02 01:26:37;;;;;;;;;;;;;;;3.31;69.50;97733.16;5234032;27;33111;-87
2022/04/02 01:29:07;;;;;;;;;;;;;;;3.28;69.26;97732.34;5229067;27;33242;-89
2022/04/02 01:31:37;;;;;;;;;;;;;;;3.57;68.75;97744.69;5230703;27;34117;-87
2022/04/02 01:34:05;;;;;;;;;;;;;;;3.71;67.47;97747.88;5228447;27;34003;-87
2022/04/02 01:36:34;;;;;;;;;;;;;;;3.60;67.85;97745.50;5228694;27;33360;-87
2022/04/02 01:39:04;;;;;;;;;;;;;;;3.50;67.72;97754.19;5234377;27;33585;-87
2022/04/02 01:41:34;;;;;;;;;;;;;;;3.12;69.53;97752.25;5228487;27;33074;-88
2022/04/02 01:44:03;;;;;;;;;;;;;;;3.29;69.08;97754.56;5228303;27;33590;-87
2022/04/02 01:46:32;;;;;;;;;;;;;;;3.68;67.12;97758.19;5228341;27;35046;-88
2022/04/02 01:49:00;;;;;;;;;;;;;;;3.56;67.52;97759.25;5228805;27;34359;-88
2022/04/02 01:51:30;;;;;;;;;;;;;;;3.84;66.12;97753.63;5234331;27;33764;-88
2022/04/02 01:53:59;;;;;;;;;;;;;;;3.35;68.72;97762.13;5229837;27;34898;-88
2022/04/02 01:56:27;;;;;;;;;;;;;;;3.51;67.66;97760.19;5228480;27;34736;-88
2022/04/02 01:58:57;;;;;;;;;;;;;;;3.95;65.95;97769.69;5228808;27;32265;-87
2022/04/02 02:01:27;;;;;;;;;;;;;;;3.83;66.10;97764.78;5229785;27;34004;-88
2022/04/02 02:03:57;;;;;;;;;;;;;;;3.90;65.56;97760.41;5228683;27;33343;-88
2022/04/02 02:06:25;;;;;;;;;;;;;;;4.05;65.61;97767.81;5233981;27;34208;-88
2022/04/02 02:08:54;;;;;;;;;;;;;;;4.14;64.83;97766.81;5228260;27;33802;-87
2022/04/02 02:11:24;;;;;;;;;;;;;;;4.19;64.37;97770.97;5228088;27;34419;-88
2022/04/02 02:13:53;;;;;;;;;;;;;;;3.55;65.96;97769.50;5227520;27;35007;-88
2022/04/02 02:16:25;;;;;;;;;;;;;;;3.98;65.33;97773.94;5237287;27;34689;-88
2022/04/02 02:18:54;;;;;;;;;;;;;;;3.95;65.08;97774.81;5232491;27;33175;-88
2022/04/02 02:21:23;;;;;;;;;;;;;;;3.72;66.43;97772.66;5229986;27;34170;-90
2022/04/02 02:23:52;;;;;;;;;;;;;;;3.97;65.18;97775.66;5228324;27;34265;-88
2022/04/02 02:26:21;;;;;;;;;;;;;;;3.82;65.77;97783.63;5228119;27;33789;-87
2022/04/02 02:28:49;;;;;;;;;;;;;;;4.01;65.46;97781.56;5232766;27;33336;-88
2022/04/02 02:31:18;;;;;;;;;;;;;;;3.68;65.96;97783.84;5234266;27;34169;-88
2022/04/02 02:36:35;;;;;;;;;;;;;;;4.12;64.25;97771.97;5228792;27;34533;-88
2022/04/02 02:39:04;;;;;;;;;;;;;;;3.89;65.16;97774.09;5228455;27;33874;-88
2022/04/02 02:41:32;;;;;;;;;;;;;;;4.00;65.33;97773.03;5228032;27;33865;-90
2022/04/02 02:44:01;;;;;;;;;;;;;;;3.88;64.94;97770.69;5228477;27;33554;-88
2022/04/02 02:46:32;;;;;;;;;;;;;;;3.81;65.00;97766.53;5233322;27;33929;-88
2022/04/02 02:49:02;;;;;;;;;;;;;;;3.47;66.49;97767.06;5228549;27;32247;-88
2022/04/02 02:51:31;;;;;;;;;;;;;;;3.33;66.97;97780.09;5234713;27;33406;-88
2022/04/02 02:53:59;;;;;;;;;;;;;;;3.41;66.73;97783.41;5257944;27;33227;-88
2022/04/02 02:56:28;;;;;;;;;;;;;;;3.49;66.67;97783.28;5227980;27;34227;-88
2022/04/02 02:58:57;;;;;;;;;;;;;;;3.45;66.71;97785.91;5233716;27;33787;-88
2022/04/02 03:01:25;;;;;;;;;;;;;;;3.43;66.84;97796.19;5227834;27;34136;-88
2022/04/02 03:03:54;;;;;;;;;;;;;;;3.55;66.19;97792.59;5229041;27;33955;-87
2022/04/02 03:06:25;;;;;;;;;;;;;;;3.25;67.43;97792.19;5228303;27;34133;-87
2022/04/02 03:08:56;;;;;;;;;;;;;;;2.99;67.74;97783.13;5228210;27;32878;-88
2022/04/02 03:11:24;;;;;;;;;;;;;;;3.17;67.93;97797.41;5228634;27;33950;-90
2022/04/02 03:13:53;;;;;;;;;;;;;;;3.32;67.59;97800.63;5233747;27;34007;-88
2022/04/02 03:16:22;;;;;;;;;;;;;;;3.58;66.17;97797.69;5231013;27;34086;-88
2022/04/02 03:18:52;;;;;;;;;;;;;;;3.29;67.80;97800.69;5228457;27;33704;-88
2022/04/02 03:21:20;;;;;;;;;;;;;;;3.50;66.74;97800.34;5228425;27;33698;-88
2022/04/02 03:23:50;;;;;;;;;;;;;;;3.63;65.75;97796.72;5227750;27;34855;-88
2022/04/02 03:26:19;;;;;;;;;;;;;;;3.27;66.95;97800.69;5233899;27;33090;-88
2022/04/02 03:28:49;;;;;;;;;;;;;;;3.25;67.01;97807.56;5228727;27;33561;-87
2022/04/02 03:31:17;;;;;;;;;;;;;;;2.59;69.56;97803.28;5228966;27;34151;-88
2022/04/02 03:33:48;;;;;;;;;;;;;;;3.17;67.79;97807.66;5228587;27;33685;-87
2022/04/02 03:36:17;;;;;;;;;;;;;;;2.85;68.96;97809.78;5228055;27;34575;-87
2022/04/02 03:38:46;;;;;;;;;;;;;;;2.98;68.19;97803.66;5233963;27;33397;-88
2022/04/02 03:41:16;;;;;;;;;;;;;;;2.87;68.96;97800.38;5228004;27;34128;-90
2022/04/02 03:43:46;;;;;;;;;;;;;;;2.65;69.87;97799.81;5227949;27;34990;-87
2022/04/02 03:49:01;;;;;;;;;;;;;;;2.35;71.17;97796.75;5228340;27;32577;-88
2022/04/02 03:51:30;;;;;;;;;;;;;;;2.41;70.73;97791.53;5228394;27;34273;-88
2022/04/02 03:54:00;;;;;;;;;;;;;;;2.86;69.43;97798.69;5233702;27;34625;-87
2022/04/02 03:56:32;;;;;;;;;;;;;;;2.88;69.41;97797.81;5227297;27;33949;-88
2022/04/02 03:59:03;;;;;;;;;;;;;;;3.16;68.32;97797.44;5227727;27;33503;-87
2022/04/02 04:01:31;;;;;;;;;;;;;;;2.82;69.01;97787.62;5227970;27;34722;-88
2022/04/02 04:04:00;;;;;;;;;;;;;;;2.71;70.02;97790.34;5228452;27;33987;-88
2022/04/02 04:06:31;;;;;;;;;;;;;;;2.76;69.39;97790.28;5233521;27;34837;-88
2022/04/02 04:09:00;;;;;;;;;;;;;;;2.54;70.06;97785.44;5232638;27;33398;-87
2022/04/02 04:11:30;;;;;;;;;;;;;;;2.62;70.33;97782.78;5226434;27;34106;-89
2022/04/02 04:13:59;;;;;;;;;;;;;;;2.65;70.02;97776.75;5226142;27;34013;-87
2022/04/02 04:16:28;;;;;;;;;;;;;;;2.30;70.92;97785.72;5226664;27;34317;-87
2022/04/02 04:18:56;;;;;;;;;;;;;;;2.48;70.75;97789.75;5226483;27;33876;-87
2022/04/02 04:21:25;;;;;;;;;;;;;;;2.93;69.26;97795.19;5232031;27;34241;-88
2022/04/02 04:23:54;;;;;;;;;;;;;;;2.89;68.82;97801.22;5227600;27;34201;-87
2022/04/02 04:26:23;;;;;;;;;;;;;;;2.71;69.52;97804.88;5226143;27;34317;-87
2022/04/02 04:28:53;;;;;;;;;;;;;;;2.83;69.73;97803.84;5226202;27;32563;-88
2022/04/02 04:31:22;;;;;;;;;;;;;;;2.88;69.30;97802.09;5227699;27;35878;-92
2022/04/02 04:33:50;;;;;;;;;;;;;;;2.86;68.83;97806.37;5231786;27;34196;-90
2022/04/02 04:36:19;;;;;;;;;;;;;;;2.71;69.93;97815.09;5226147;27;33726;-88
2022/04/02 04:38:48;;;;;;;;;;;;;;;2.88;69.51;97812.34;5226259;27;33250;-87
2022/04/02 04:41:18;;;;;;;;;;;;;;;2.99;68.43;97819.00;5227973;27;33557;-90
2022/04/02 04:43:49;;;;;;;;;;;;;;;2.98;68.56;97826.72;5226619;27;35051;-88
2022/04/02 04:46:20;;;;;;;;;;;;;;;3.17;68.25;97820.47;5232098;27;33951;-88
2022/04/02 04:48:50;;;;;;;;;;;;;;;3.34;67.75;97819.41;5230374;27;32991;-88
2022/04/02 04:51:23;;;;;;;;;;;;;;;3.32;67.87;97821.13;5228457;27;34210;-87
2022/04/02 04:53:52;;;;;;;;;;;;;;;3.53;66.88;97825.97;5227525;27;34368;-88
2022/04/02 04:56:21;;;;;;;;;;;;;;;3.49;67.24;97829.44;5227664;27;34199;-87
2022/04/02 04:58:50;;;;;;;;;;;;;;;3.54;67.26;97829.34;5227695;27;33319;-88
2022/04/02 05:01:21;;;;;;;;;;;;;;;3.48;67.66;97819.19;5233566;27;33749;-88
2022/04/02 05:03:49;;;;;;;;;;;;;;;3.69;67.13;97830.84;5237478;27;34009;-89
2022/04/02 05:06:19;;;;;;;;;;;;;;;3.93;65.30;97827.88;5235971;27;35847;-88
2022/04/02 05:08:48;;;;;;;;;;;;;;;3.96;65.21;97824.41;5199191;27;784014;-89
2022/04/02 05:11:17;;;;;;;;;;;;;;;4.21;64.30;97830.84;5229000;27;32393;-88
2022/04/02 05:13:46;;;;;;;;;;;;;;;4.09;64.64;97835.34;5234678;27;33960;-88
2022/04/02 05:16:15;;;;;;;;;;;;;;;4.11;64.94;97829.31;5230367;27;34974;-88
2022/04/02 05:18:45;;;;;;;;;;;;;;;3.83;66.23;97839.16;5228782;27;33455;-88
2022/04/02 05:21:15;;;;;;;;;;;;;;;4.19;65.33;97837.72;5229671;27;33919;-87
2022/04/02 05:23:44;;;;;;;;;;;;;;;4.32;64.20;97846.03;5229732;27;35483;-88
2022/04/02 05:26:13;;;;;;;;;;;;;;;4.43;63.87;97846.69;5234133;27;34258;-87
2022/04/02 05:28:42;;;;;;;;;;;;;;;4.16;64.94;97853.16;5217263;27;35190;-87
2022/04/02 05:31:14;;;;;;;;;;;;;;;4.30;64.17;97859.75;5228746;27;34069;-87
2022/04/02 05:33:42;;;;;;;;;;;;;;;4.10;65.16;97858.38;5228345;27;34139;-87
2022/04/02 05:36:14;;;;;;;;;;;;;;;4.03;64.98;97856.78;5228291;27;33754;-87
2022/04/02 05:38:43;;;;;;;;;;;;;;;4.13;65.01;97852.34;5228752;27;33576;-88
2022/04/02 05:41:11;;;;;;;;;;;;;;;4.07;65.37;97855.88;5234209;27;33867;-89
2022/04/02 05:43:40;;;;;;;;;;;;;;;3.78;66.24;97866.59;5228700;27;34664;-89
2022/04/02 05:46:08;;;;;;;;;;;;;;;3.81;66.24;97864.84;5228324;27;34474;-87
2022/04/02 05:48:37;;;;;;;;;;;;;;;3.98;66.32;97856.03;5234384;27;33086;-88
2022/04/02 05:51:05;;;;;;;;;;;;;;;4.02;65.77;97863.66;5228310;27;34265;-88
2022/04/02 05:53:35;;;;;;;;;;;;;;;3.89;66.37;97859.59;5234021;27;34257;-87
2022/04/02 05:56:04;;;;;;;;;;;;;;;3.94;66.77;97867.19;5228290;27;34934;-87
2022/04/02 05:58:32;;;;;;;;;;;;;;;4.34;64.39;97867.37;5228731;27;34350;-87
2022/04/02 06:01:01;;;;;;;;;;;;;;;4.15;64.50;97872.00;5227460;27;34948;-87
2022/04/02 06:03:29;;;;;;;;;;;;;;;3.99;65.38;97871.41;5228176;27;34147;-87
2022/04/02 06:05:58;;;;;;;;;;;;;;;3.92;66.41;97858.72;5233473;27;34041;-88
2022/04/02 06:08:26;;;;;;;;;;;;;;;4.23;64.82;97866.75;5227441;27;32941;-87
2022/04/02 06:10:58;;;;;;;;;;;;;;;4.19;64.63;97870.22;5228331;27;34766;-88
2022/04/02 06:13:27;;;;;;;;;;;;;;;4.68;62.52;97870.19;5227000;27;34063;-88
2022/04/02 06:15:56;;;;;;;;;;;;;;;4.40;63.57;97881.84;5228575;27;34854;-88
2022/04/02 06:18:24;;;;;;;;;;;;;;;4.60;63.62;97869.50;5231324;27;33431;-88
2022/04/02 06:20:54;;;;;;;;;;;;;;;4.69;63.46;97882.16;5233198;27;34085;-87
2022/04/02 06:23:25;;;;;;;;;;;;;;;5.00;61.65;97889.31;5230257;27;35098;-88
2022/04/02 06:25:53;;;;;;;;;;;;;;;4.76;62.18;97887.19;5225451;27;34129;-90
2022/04/02 06:28:23;;;;;;;;;;;;;;;5.06;61.17;97893.47;5238245;27;33363;-88
2022/04/02 06:30:51;;;;;;;;;;;;;;;4.86;61.49;97886.16;5232365;27;37441;-87
2022/04/02 06:33:21;;;;;;;;;;;;;;;4.30;63.41;97875.16;5234584;27;33720;-87
2022/04/02 06:35:49;;;;;;;;;;;;;;;4.40;63.18;97880.13;5228174;27;34229;-87
2022/04/02 06:38:18;;;;;;;;;;;;;;;4.46;63.68;97897.13;5228252;27;33386;-87
2022/04/02 06:40:46;;;;;;;;;;;;;;;4.52;62.70;97891.91;5229408;27;34117;-88
2022/04/02 06:43:14;;;;;;;;;;;;;;;4.65;63.59;97892.53;5227599;27;34923;-87
2022/04/02 06:45:45;;;;;;;;;;;;;;;4.31;63.38;97889.72;5233644;27;35065;-87
2022/04/02 06:48:14;;;;;;;;;;;;;;;4.40;63.83;97892.97;5227826;27;35015;-87
2022/04/02 06:50:43;;;;;;;;;;;;;;;4.37;63.15;97897.28;5228029;27;34026;-88
2022/04/02 06:53:12;;;;;;;;;;;;;;;4.61;63.25;97896.84;5228151;27;34003;-88
2022/04/02 06:55:41;;;;;;;;;;;;;;;4.77;62.44;97894.03;5227843;27;34061;-87
2022/04/02 06:58:12;;;;;;;;;;;;;;;4.66;62.61;97897.66;5233621;27;33418;-88
2022/04/02 07:00:40;;;;;;;;;;;;;;;4.68;62.87;97902.72;5228689;27;33502;-88
2022/04/02 07:03:10;;;;;;;;;;;;;;;5.16;61.56;97894.97;5227484;27;33714;-88
2022/04/02 07:05:39;;;;;;;;;;;;;;;4.99;62.11;97903.00;5227886;27;34186;-88
2022/04/02 07:08:08;;;;;;;;;;;;;;;5.10;62.22;97913.94;5226882;27;32975;-88
2022/04/02 07:10:36;;;;;;;;;;;;;;;5.26;61.84;97911.88;5224167;27;33784;-89
2022/04/02 07:13:05;;;;;;;;;;;;;;;5.50;61.28;97896.81;5234052;27;33920;-88
2022/04/02 07:15:33;;;;;;;;;;;;;;;5.72;60.62;97910.91;5227963;27;34204;-88
2022/04/02 07:18:04;;;;;;;;;;;;;;;6.06;60.25;97907.59;5228140;27;33487;-88
2022/04/02 07:20:34;;;;;;;;;;;;;;;6.25;59.04;97907.16;5228637;27;34199;-90
2022/04/02 07:23:03;;;;;;;;;;;;;;;6.04;59.77;97911.09;5227742;27;34225;-90
2022/04/02 07:25:31;;;;;;;;;;;;;;;5.93;59.60;97908.75;5232444;27;34320;-88
2022/04/02 07:28:00;;;;;;;;;;;;;;;6.10;58.70;97916.94;5228247;27;34041;-88
2022/04/02 07:30:28;;;;;;;;;;;;;;;5.62;60.02;97913.72;5227846;27;34512;-88
2022/04/02 07:32:57;;;;;;;;;;;;;;;5.83;58.89;97917.56;5228733;27;34795;-88
2022/04/02 07:35:26;;;;;;;;;;;;;;;5.59;58.26;97926.66;5228282;27;33976;-89
2022/04/02 07:37:59;;;;;;;;;;;;;;;5.56;59.37;97919.84;5234128;27;33235;-87
2022/04/02 07:40:35;;;;;;;;;;;;;;;5.42;59.61;97914.16;5228442;27;32513;-88
2022/04/02 07:43:06;;;;;;;;;;;;;;;5.90;58.35;97924.25;5228463;27;34079;-88
2022/04/02 07:45:38;;;;;;;;;;;;;;;5.83;58.16;97918.41;5229004;27;34608;-88
2022/04/02 07:48:08;;;;;;;;;;;;;;;6.05;58.43;97929.06;5209074;27;33242;-90
2022/04/02 07:50:38;;;;;;;;;;;;;;;5.80;58.67;97941.63;5228424;27;34266;-88
2022/04/02 07:53:08;;;;;;;;;;;;;;;6.12;58.56;97937.50;5233713;27;33802;-88
2022/04/02 07:55:37;;;;;;;;;;;;;;;5.89;58.07;97936.25;5228510;27;33990;-91
2022/04/02 07:58:05;;;;;;;;;;;;;;;5.83;58.87;97938.97;5228234;27;34097;-88
2022/04/02 08:00:33;;;;;;;;;;;;;;;6.11;59.21;97935.81;5228399;27;34073;-88
2022/04/02 08:03:02;;;;;;;;;;;;;;;6.22;58.20;97941.56;5236395;27;34307;-88
2022/04/02 08:05:31;;;;;;;;;;;;;;;6.02;59.21;97939.44;5233285;27;34210;-88
2022/04/02 08:08:00;;;;;;;;;;;;;;;6.22;58.22;97936.41;5226311;27;33431;-88
2022/04/02 08:10:30;;;;;;;;;;;;;;;6.36;58.24;97933.50;5226663;27;34210;-88
2022/04/02 08:12:59;;;;;;;;;;;;;;;6.24;58.56;97937.22;5227928;27;33653;-88
2022/04/02 08:15:27;;;;;;;;;;;;;;;6.47;58.11;97935.81;5228294;27;33949;-88
2022/04/02 08:17:56;;;;;;;;;;;;;;;6.37;58.05;97936.03;5234191;27;32485;-88
2022/04/02 08:20:27;;;;;;;;;;;;;;;6.47;58.86;97938.38;5232706;27;35791;-88
2022/04/02 08:22:56;;;;;;;;;;;;;;;6.33;58.08;97926.69;5227918;27;33899;-89
2022/04/02 08:25:24;;;;;;;;;;;;;;;6.44;58.73;97938.47;5229049;27;34133;-87
2022/04/02 08:28:09;;;;;;;;;;;;;;;6.40;58.67;97940.25;5228760;27;33553;-89
2022/04/02 08:30:39;;;;;;;;;;;;;;;6.89;57.59;97943.34;5229036;27;34075;-88
2022/04/02 08:33:25;;;;;;;;;;;;;;;6.97;56.84;97949.13;5234263;27;34266;-88
2022/04/02 08:35:57;;;;;;;;;;;;;;;6.80;56.76;97955.56;5234637;27;32812;-87
2022/04/02 08:38:27;;;;;;;;;;;;;;;6.05;58.83;97953.97;5228982;27;34100;-88
2022/04/02 08:41:05;;;;;;;;;;;;;;;6.04;59.54;97962.56;5228885;27;33915;-88
2022/04/02 08:43:50;;;;;;;;;;;;;;;5.98;59.30;97959.25;5228920;27;34553;-88
2022/04/02 08:46:25;;;;;;;;;;;;;;;5.85;60.32;97965.53;5229566;27;34114;-88
2022/04/02 08:48:55;;;;;;;;;;;;;;;6.20;60.15;97962.19;5228838;27;33104;-90
2022/04/02 08:51:26;;;;;;;;;;;;;;;6.31;59.37;97966.25;5234289;27;34044;-88
2022/04/02 08:53:58;;;;;;;;;;;;;;;6.46;59.17;97970.19;5229267;27;34913;-88
2022/04/02 08:56:29;;;;;;;;;;;;;;;6.56;59.62;97967.34;5229124;27;33848;-87
2022/04/02 08:59:05;;;;;;;;;;;;;;;6.75;58.21;97965.16;5229490;27;33532;-88
2022/04/02 09:01:39;;;;;;;;;;;;;;;6.90;58.57;97963.91;5228938;27;34935;-88
2022/04/02 09:04:29;;;;;;;;;;;;;;;7.28;57.47;97962.03;5228849;27;34892;-88
2022/04/02 09:07:13;;;;;;;;;;;;;;;6.79;58.23;97973.63;5234291;27;34600;-88
2022/04/02 09:10:08;;;;;;;;;;;;;;;7.10;58.13;97973.69;5233284;27;32168;-89
2022/04/02 09:12:42;;;;;;;;;;;;;;;7.01;56.69;97971.38;5227879;27;34009;-88
2022/04/02 09:15:16;;;;;;;;;;;;;;;7.03;56.64;97978.19;5229000;27;35058;-88
2022/04/02 09:17:49;;;;;;;;;;;;;;;6.75;58.12;97984.94;5228600;27;34973;-89
2022/04/02 09:20:36;;;;;;;;;;;;;;;6.84;57.68;97992.44;5228960;27;33494;-88
2022/04/02 09:23:08;;;;;;;;;;;;;;;6.96;57.10;97998.97;5228876;27;33852;-88
2022/04/02 09:25:46;;;;;;;;;;;;;;;6.66;57.60;97987.72;5229010;27;36115;-88
2022/04/02 09:28:22;;;;;;;;;;;;;;;6.64;57.96;97998.06;5251267;27;34751;-89
2022/04/02 09:31:15;;;;;;;;;;;;;;;6.69;57.80;97998.78;5232200;27;33647;-88
2022/04/02 09:33:58;;;;;;;;;;;;;;;6.74;57.96;97996.97;5229019;27;33646;-88
2022/04/02 09:36:31;;;;;;;;;;;;;;;6.75;57.16;98003.81;5229600;27;33716;-88
2022/04/02 09:39:17;;;;;;;;;;;;;;;6.61;57.72;98005.88;5228213;27;33840;-88
2022/04/02 09:41:54;;;;;;;;;;;;;;;6.68;57.98;98014.31;5229322;27;33236;-87
2022/04/02 09:44:47;;;;;;;;;;;;;;;6.87;58.27;98010.38;5228779;27;33341;-89
2022/04/02 09:47:19;;;;;;;;;;;;;;;7.13;56.94;98016.59;5219422;27;34125;-88
2022/04/02 09:49:50;;;;;;;;;;;;;;;7.21;56.36;98017.25;5234515;27;33406;-88
2022/04/02 09:52:21;;;;;;;;;;;;;;;7.32;55.81;98019.53;5229146;27;33201;-88
2022/04/02 09:54:53;;;;;;;;;;;;;;;7.01;56.80;98013.47;5230292;27;34011;-88
2022/04/02 09:57:26;;;;;;;;;;;;;;;6.92;58.13;98015.44;5229305;27;33663;-87
2022/04/02 10:00:04;;;;;;;;;;;;;;;7.22;57.00;98027.53;5229759;27;33606;-88
2022/04/02 10:02:57;;;;;;;;;;;;;;;7.41;55.97;98029.59;5228711;27;34055;-88
2022/04/02 10:05:33;;;;;;;;;;;;;;;7.37;55.63;98026.28;5228676;27;34673;-89
2022/04/02 10:08:03;;;;;;;;;;;;;;;7.14;56.61;98029.44;5233814;27;33682;-88
2022/04/02 10:10:34;;;;;;;;;;;;;;;7.12;56.71;98028.63;5228540;27;34358;-88
2022/04/02 10:13:03;;;;;;;;;;;;;;;7.32;55.90;98027.28;5229080;27;34057;-89
2022/04/02 10:15:32;;;;;;;;;;;;;;;7.20;56.67;98034.47;5229303;27;33009;-90
2022/04/02 10:18:02;;;;;;;;;;;;;;;7.29;56.68;98035.09;5228372;27;34078;-88
2022/04/02 10:20:32;;;;;;;;;;;;;;;7.34;56.55;98035.81;5234542;27;33999;-88
2022/04/02 10:23:03;;;;;;;;;;;;;;;7.30;56.29;98040.22;5229025;27;32025;-88
2022/04/02 10:25:33;;;;;;;;;;;;;;;7.50;54.91;98038.84;5229418;27;33864;-90
2022/04/02 10:28:02;;;;;;;;;;;;;;;7.47;55.43;98037.19;5229060;27;35920;-88
2022/04/02 10:30:30;;;;;;;;;;;;;;;7.26;55.46;98034.28;5229882;27;34399;-88
2022/04/02 10:33:26;;;;;;;;;;;;;;;7.02;56.63;98033.19;5230445;27;33233;-89
2022/04/02 10:35:50;;;;;;;;;;;;;;;7.01;57.01;98030.66;5235404;27;34770;-88
2022/04/02 10:38:33;;;;;;;;;;;;;;;7.50;55.28;98025.94;5228220;27;34980;-87
2022/04/02 10:41:04;;;;;;;;;;;;;;;7.16;56.00;98029.44;5228547;27;33937;-88
2022/04/02 10:43:41;;;;;;;;;;;;;;;7.18;56.40;98033.66;5228860;27;33955;-88
2022/04/02 10:46:09;;;;;;;;;;;;;;;7.53;55.87;98037.00;5228935;27;34452;-88
2022/04/02 10:48:43;;;;;;;;;;;;;;;7.45;55.08;98036.38;5228439;27;34076;-88
2022/04/02 10:51:13;;;;;;;;;;;;;;;7.13;56.46;98040.66;5234172;27;34797;-88
2022/04/02 10:53:42;;;;;;;;;;;;;;;7.25;55.58;98048.09;5228340;27;33235;-88
2022/04/02 10:56:18;;;;;;;;;;;;;;;7.12;55.93;98048.44;5228267;27;34613;-90
2022/04/02 10:58:49;;;;;;;;;;;;;;;7.12;56.10;98046.69;5228578;27;34118;-88
2022/04/02 11:01:18;;;;;;;;;;;;;;;7.02;56.08;98058.13;5228661;27;34344;-88
2022/04/02 11:03:48;;;;;;;;;;;;;;;6.88;57.11;98057.63;5230745;27;33196;-88
2022/04/02 11:06:37;;;;;;;;;;;;;;;6.77;57.28;98061.31;5233942;27;34320;-89
2022/04/02 11:09:21;;;;;;;;;;;;;;;6.81;57.32;98065.53;5230281;27;35349;-88
2022/04/02 11:11:50;;;;;;;;;;;;;;;6.75;57.50;98070.81;5228566;27;34733;-88
2022/04/02 11:14:20;;;;;;;;;;;;;;;6.93;56.78;98068.66;5228831;27;34017;-89
2022/04/02 11:16:48;;;;;;;;;;;;;;;7.05;56.75;98068.34;5227887;27;34027;-88
2022/04/02 11:22:19;;;;;;;;;;;;;;;6.79;57.68;98072.44;5141492;27;33871;-88
2022/04/02 11:24:51;;;;;;;;;;;;;;;6.62;57.87;98070.25;5147110;27;32684;-89
2022/04/02 11:27:19;;;;;;;;;;;;;;;7.04;57.40;98071.84;5138706;27;34098;-88
2022/04/02 11:29:49;;;;;;;;;;;;;;;7.07;57.03;98066.59;5141035;27;35025;-87
2022/04/02 11:32:26;;;;;;;;;;;;;;;7.17;56.56;98065.47;5141246;27;32999;-88
2022/04/02 11:34:54;;;;;;;;;;;;;;;7.07;56.83;98070.91;5141599;27;34009;-88
2022/04/02 11:37:28;;;;;;;;;;;;;;;6.81;57.55;98072.37;5143832;27;34508;-88
2022/04/02 11:39:58;;;;;;;;;;;;;;;6.99;57.53;98071.09;5146324;27;34852;-88
2022/04/02 11:42:27;;;;;;;;;;;;;;;7.04;57.91;98079.56;5141580;27;33865;-88
2022/04/02 11:44:56;;;;;;;;;;;;;;;7.22;58.19;98073.97;5141467;27;33165;-88
2022/04/02 11:47:26;;;;;;;;;;;;;;;7.22;57.22;98075.66;5141323;27;34566;-88
2022/04/02 11:49:55;;;;;;;;;;;;;;;7.18;57.14;98074.06;5141131;27;34057;-88
2022/04/02 11:52:25;;;;;;;;;;;;;;;6.77;58.02;98071.63;5146828;27;34420;-88
2022/04/02 11:55:00;;;;;;;;;;;;;;;7.00;57.13;98075.38;5142665;27;34337;-88
2022/04/02 11:57:28;;;;;;;;;;;;;;;7.16;56.74;98084.41;5217350;27;33753;-88
2022/04/02 11:59:58;;;;;;;;;;;;;;;7.06;56.97;98080.37;5227533;27;34360;-88
2022/04/02 12:02:36;;;;;;;;;;;;;;;7.08;56.81;98081.19;5228363;27;33900;-89
2022/04/02 12:05:06;;;;;;;;;;;;;;;7.18;57.01;98077.50;5231837;27;33274;-88
2022/04/02 12:07:42;;;;;;;;;;;;;;;7.29;57.99;98077.22;5233923;27;34707;-88
2022/04/02 12:10:32;;;;;;;;;;;;;;;7.56;57.09;98082.53;5233239;27;34327;-88
2022/04/02 12:13:03;;;;;;;;;;;;;;;7.67;57.92;98083.94;5228421;27;33835;-89
2022/04/02 12:15:31;;;;;;;;;;;;;;;7.60;57.74;98081.56;5228056;27;34251;-89
2022/04/02 12:18:01;;;;;;;;;;;;;;;7.54;58.56;98080.00;5229334;27;34697;-88
2022/04/02 12:20:29;;;;;;;;;;;;;;;7.42;58.98;98077.75;5237318;27;34295;-88
2022/04/02 12:23:10;;;;;;;;;;;;;;;7.29;60.51;98077.22;5233788;27;33910;-88
2022/04/02 12:25:40;;;;;;;;;;;;;;;7.46;60.48;98077.59;5228697;27;32909;-88
2022/04/02 12:28:12;;;;;;;;;;;;;;;7.75;59.88;98090.63;5236215;27;34945;-88
2022/04/02 12:30:42;;;;;;;;;;;;;;;7.30;60.12;98083.22;5227844;27;34837;-88
2022/04/02 12:33:15;;;;;;;;;;;;;;;7.21;61.14;98076.56;5228437;27;34214;-88
2022/04/02 12:35:45;;;;;;;;;;;;;;;7.13;61.35;98087.09;5247088;27;32154;-87
2022/04/02 12:38:29;;;;;;;;;;;;;;;7.19;60.04;98094.66;5233173;27;33891;-88
2022/04/02 12:40:57;;;;;;;;;;;;;;;7.22;60.06;98097.19;5228403;27;33953;-88
2022/04/02 12:43:27;;;;;;;;;;;;;;;7.34;60.66;98092.56;5227728;27;34027;-89
2022/04/02 12:45:55;;;;;;;;;;;;;;;7.40;61.09;98089.84;5227382;27;34042;-88
2022/04/02 12:48:25;;;;;;;;;;;;;;;7.43;61.44;98100.91;5227679;27;34630;-88
2022/04/02 12:50:55;;;;;;;;;;;;;;;7.50;59.28;98090.44;5233431;27;33543;-88
2022/04/02 12:53:29;;;;;;;;;;;;;;;6.97;60.85;98091.75;5235423;27;34906;-89
2022/04/02 12:55:58;;;;;;;;;;;;;;;7.10;60.63;98092.28;5229804;27;32921;-88
2022/04/02 12:58:33;;;;;;;;;;;;;;;7.04;61.80;98097.63;5227902;27;33942;-88
2022/04/02 13:01:12;;;;;;;;;;;;;;;7.15;61.26;98098.22;5227717;27;34094;-88
2022/04/02 13:03:45;;;;;;;;;;;;;;;7.14;61.87;98099.06;5228083;27;33740;-88
2022/04/02 13:06:18;;;;;;;;;;;;;;;7.01;61.46;98097.69;5233567;27;33423;-88
2022/04/02 13:09:07;;;;;;;;;;;;;;;6.89;62.23;98096.25;5231829;27;34174;-88
2022/04/02 13:11:42;;;;;;;;;;;;;;;6.94;62.49;98099.56;5225090;27;34347;-88
2022/04/02 13:14:14;;;;;;;;;;;;;;;6.98;62.38;98100.34;5229087;27;34146;-88
2022/04/02 13:16:46;;;;;;;;;;;;;;;6.57;64.05;98099.56;5229318;27;33536;-89
2022/04/02 13:22:05;;;;;;;;;;;;;;;6.89;63.33;98103.16;5228901;27;33753;-86
2022/04/02 13:24:34;;;;;;;;;;;;;;;6.55;63.94;98106.50;5234288;27;33855;-88
2022/04/02 13:27:11;;;;;;;;;;;;;;;6.43;65.36;98096.44;5228891;27;33718;-88
2022/04/02 13:29:44;;;;;;;;;;;;;;;6.70;65.61;98107.91;5228554;27;34903;-88